VE3UIX Weather Reports


Display with metric or nautical units.
time (UTC)temp
F
wind
direction
speed
MPH
gust
MPH
rain 1hr
in
rain 24hr
in
rain mn
in
humidity
%
barometer
mb
20211020125856 52 294 5.0 9.0 0.00 0.00 0.00 98 1010.4
20211020124356 49 284 5.0 8.0 0.00 0.00 0.00 98 1010.4
20211020122857 47 280 4.0 8.0 0.00 0.00 0.00 97 1010.3
20211020121356 45 282 3.0 6.0 0.00 0.00 0.00 97 1010.0
20211020115855 45 292 3.0 7.0 0.00 0.00 0.00 97 1009.9
20211020114354 45 282 3.0 6.0 0.00 0.00 0.00 97 1009.7
20211020112854 45 293 3.0 6.0 0.00 0.00 0.00 96 1009.7
20211020111341 45 284 3.0 6.0 0.00 0.00 0.00 97 1009.7
20211020105835 44 272 2.0 4.0 0.00 0.00 0.00 96 1009.6
20211020104330 44 292 2.0 4.0 0.00 0.00 0.00 96 1009.5
20211020102828 45 296 2.0 4.0 0.00 0.00 0.00 96 1009.5
20211020101326 45 292 1.0 3.0 0.00 0.00 0.00 96 1009.2
20211020095826 45 289 2.0 3.0 0.00 0.00 0.00 96 1009.3
20211020094324 44 292 1.0 2.0 0.00 0.00 0.00 96 1009.3
20211020092823 44 292 1.0 3.0 0.00 0.00 0.00 96 1009.1
20211020091302 44 250 1.0 2.0 0.00 0.00 0.00 96 1008.8
20211020085802 43 250 1.0 2.0 0.00 0.00 0.00 95 1008.7
20211020084258 43 250 0.0 1.0 0.00 0.00 0.00 94 1008.6
20211020082754 44 250 0.0 1.0 0.00 0.00 0.00 94 1008.5
20211020081246 44 250 1.0 2.0 0.00 0.00 0.00 94 1008.4
20211020075707 45 250 0.0 2.0 0.00 0.00 0.00 94 1008.2
20211020074209 46 250 1.0 2.0 0.00 0.00 0.00 95 1008.2
20211020072704 46 250 1.0 3.0 0.00 0.00 0.00 94 1008.0
20211020071154 46 250 1.0 3.0 0.00 0.00 0.00 94 1008.0
20211020065646 46 250 2.0 3.0 0.00 0.00 0.00 94 1007.9
20211020064144 46 250 2.0 3.0 0.00 0.00 0.00 93 1007.8
20211020062636 47 250 2.0 3.0 0.00 0.00 0.00 93 1007.8
20211020061132 47 250 2.0 4.0 0.00 0.00 0.00 93 1007.7
20211020055629 47 250 3.0 4.0 0.00 0.00 0.00 93 1007.6
20211020054108 47 250 2.0 3.0 0.00 0.00 0.00 92 1007.6
20211020052605 48 250 2.0 3.0 0.00 0.00 0.00 92 1007.5
20211020051052 48 250 3.0 4.0 0.00 0.00 0.00 91 1007.6
20211020045540 49 250 2.0 4.0 0.00 0.00 0.00 91 1007.7
20211020044039 48 250 1.0 2.0 0.00 0.00 0.00 91 1007.6
20211020042537 48 250 0.0 1.0 0.00 0.00 0.00 89 1007.6
20211020041035 49 250 0.0 0.0 0.00 0.00 0.00 88 1007.6
20211020035504 50 250 0.0 1.0 0.00 0.00 0.00 88 1007.5
20211020033950 50 250 1.0 1.0 0.00 0.00 0.00 86 1007.5
20211020032445 51 250 0.0 1.0 0.00 0.00 0.00 84 1007.4
20211020030920 52 250 0.0 3.0 0.00 0.00 0.00 82 1007.4
20211020025419 53 250 2.0 4.0 0.00 0.00 0.00 81 1007.4
20211020023917 54 250 3.0 7.0 0.00 0.00 0.00 79 1007.3
20211020022417 55 283 4.0 7.0 0.00 0.00 0.00 78 1007.2
20211020020917 55 275 5.0 9.0 0.00 0.00 0.00 78 1007.3
20211020015417 55 282 6.0 10.0 0.00 0.00 0.00 77 1007.2
20211020013917 55 250 6.0 9.0 0.00 0.00 0.00 78 1007.2
20211020012417 55 260 5.0 8.0 0.00 0.00 0.00 78 1007.0
20211020010915 55 263 5.0 8.0 0.00 0.00 0.00 78 1007.0
20211020005416 55 255 5.0 8.0 0.00 0.00 0.00 79 1007.0
20211020003915 54 259 5.0 8.0 0.00 0.00 0.00 81 1006.8
20211020002415 53 272 3.0 6.0 0.00 0.00 0.00 79 1006.8
20211020000916 54 341 1.0 3.0 0.00 0.00 0.00 77 1006.8
20211019235400 55 341 1.0 3.0 0.00 0.00 0.00 74 1006.7
20211019233848 56 355 2.0 6.0 0.00 0.00 0.00 72 1006.6
20211019232330 58 258 4.0 7.0 0.00 0.00 0.00 70 1006.3
20211019230831 58 246 5.0 6.0 0.00 0.00 0.00 67 1006.3
20211019225332 59 245 4.0 7.0 0.00 0.00 0.00 65 1006.3
20211019223830 60 249 4.0 6.0 0.00 0.00 0.00 64 1006.3
20211019222329 61 272 4.0 6.0 0.00 0.00 0.00 61 1006.3
20211019220825 62 278 5.0 9.0 0.00 0.00 0.00 59 1006.4
20211019215324 64 285 5.0 9.0 0.00 0.00 0.00 56 1006.2
20211019213823 65 290 6.0 11.0 0.00 0.00 0.00 53 1006.3
20211019212320 66 284 6.0 11.0 0.00 0.00 0.00 51 1006.2
20211019210818 66 280 7.0 14.0 0.00 0.00 0.00 50 1006.2
20211019205315 66 295 7.0 15.0 0.00 0.00 0.00 49 1006.3
20211019203815 66 303 7.0 14.0 0.00 0.00 0.00 49 1006.3
20211019202309 66 348 6.0 13.0 0.00 0.00 0.00 47 1006.4
20211019200807 66 282 7.0 13.0 0.00 0.00 0.00 46 1006.5
20211019195306 65 298 7.0 13.0 0.00 0.00 0.00 46 1006.6
20211019193807 65 282 8.0 15.0 0.00 0.01 0.00 47 1006.6
20211019192308 65 271 9.0 14.0 0.00 0.01 0.00 48 1006.7
20211019190806 65 284 11.0 17.0 0.00 0.01 0.00 47 1006.8
20211019185306 65 265 8.0 16.0 0.00 0.01 0.00 47 1006.9
20211019183805 64 260 9.0 17.0 0.00 0.01 0.00 46 1007.2
20211019182307 63 291 9.0 15.0 0.00 0.01 0.00 47 1007.3
20211019180805 63 277 9.0 15.0 0.00 0.01 0.00 49 1007.6
20211019175305 62 323 8.0 16.0 0.00 0.01 0.00 52 1007.7
20211019173805 60 274 8.0 14.0 0.00 0.01 0.00 58 1008.1
20211019172306 58 248 3.0 8.0 0.00 0.01 0.00 63 1008.2
20211019170805 57 241 3.0 6.0 0.00 0.01 0.00 65 1008.6
20211019165256 56 248 3.0 6.0 0.00 0.01 0.00 69 1008.9
20211019163757 55 257 3.0 8.0 0.00 0.01 0.00 71 1009.2
20211019162250 54 242 3.0 7.0 0.00 0.01 0.00 69 1009.6
20211019160751 54 249 4.0 9.0 0.00 0.01 0.00 71 1009.8
20211019155250 53 289 3.0 7.0 0.00 0.01 0.00 73 1010.0
20211019153752 52 269 2.0 5.0 0.00 0.01 0.00 75 1010.2
20211019152251 51 229 2.0 6.0 0.00 0.01 0.00 76 1010.3
20211019150752 50 241 2.0 5.0 0.00 0.01 0.00 80 1010.4
20211019145249 49 264 3.0 7.0 0.00 0.01 0.00 80 1010.5
20211019143747 48 265 5.0 11.0 0.00 0.01 0.00 81 1010.7
20211019142242 47 262 3.0 6.0 0.00 0.01 0.00 84 1010.8
20211019140741 47 281 2.0 7.0 0.00 0.01 0.00 84 1010.9
20211019135241 46 275 3.0 6.0 0.00 0.01 0.00 87 1011.1
20211019133737 44 238 2.0 7.0 0.00 0.01 0.00 89 1011.1
20211019132227 43 238 2.0 6.0 0.00 0.01 0.00 93 1011.1
20211019130718 40 250 4.0 8.0 0.00 0.01 0.00 94 1011.0